createdAt,value
2023-05-06T00:02:14.944Z,3.50
2023-05-06T00:04:43.391Z,3.50
2023-05-06T00:07:11.780Z,3.70
2023-05-06T00:09:39.500Z,3.40
2023-05-06T00:12:07.295Z,3.90
2023-05-06T00:14:35.129Z,3.20
2023-05-06T00:17:02.919Z,3.60
2023-05-06T00:19:30.732Z,3.10
2023-05-06T00:21:58.860Z,3.50
2023-05-06T00:24:26.602Z,3.60
2023-05-06T00:26:54.439Z,3.70
2023-05-06T00:29:22.396Z,3.00
2023-05-06T00:31:50.154Z,3.40
2023-05-06T00:34:17.983Z,3.80
2023-05-06T00:36:45.713Z,2.80
2023-05-06T00:39:13.808Z,3.80
2023-05-06T00:41:41.879Z,3.10
2023-05-06T00:44:09.711Z,4.50
2023-05-06T00:46:37.705Z,3.60
2023-05-06T00:49:06.115Z,2.90
2023-05-06T00:51:34.076Z,4.40
2023-05-06T00:54:02.411Z,3.50
2023-05-06T00:56:30.083Z,3.20
2023-05-06T00:58:57.973Z,4.40
2023-05-06T01:01:27.181Z,3.80
2023-05-06T01:03:58.485Z,3.90
2023-05-06T01:06:46.742Z,3.60
2023-05-06T01:09:17.564Z,3.10
2023-05-06T01:11:50.598Z,4.70
2023-05-06T01:14:38.411Z,3.40
2023-05-06T01:17:09.524Z,3.60
2023-05-06T01:19:49.077Z,3.40
2023-05-06T01:22:16.910Z,4.10
2023-05-06T01:24:44.999Z,3.60
2023-05-06T01:27:13.422Z,3.90
2023-05-06T01:29:42.244Z,3.10
2023-05-06T01:32:09.962Z,3.60
2023-05-06T01:34:42.189Z,3.60
2023-05-06T01:37:13.080Z,4.20
2023-05-06T01:39:41.870Z,4.00
2023-05-06T01:42:09.647Z,3.30
2023-05-06T01:44:37.799Z,3.00
2023-05-06T01:47:07.443Z,3.70
2023-05-06T01:49:35.567Z,3.40
2023-05-06T01:52:03.424Z,3.80
2023-05-06T01:54:31.386Z,3.60
2023-05-06T01:56:59.072Z,3.40
2023-05-06T01:59:27.974Z,3.60
2023-05-06T02:01:57.195Z,4.00
2023-05-06T02:04:25.016Z,3.20
2023-05-06T02:06:52.804Z,4.00
2023-05-06T02:09:20.741Z,4.00
2023-05-06T02:11:48.531Z,3.70
2023-05-06T02:14:16.351Z,4.00
2023-05-06T02:16:44.076Z,4.20
2023-05-06T02:19:12.400Z,3.90
2023-05-06T02:21:40.276Z,3.50
2023-05-06T02:24:08.102Z,5.70
2023-05-06T02:26:35.948Z,3.90
2023-05-06T02:29:03.654Z,4.70
2023-05-06T02:31:31.802Z,4.40
2023-05-06T02:33:59.804Z,3.80
2023-05-06T02:36:27.673Z,3.60
2023-05-06T02:38:56.070Z,4.40
2023-05-06T02:41:23.790Z,3.80
2023-05-06T02:43:51.645Z,3.30
2023-05-06T02:46:19.526Z,3.70
2023-05-06T02:48:47.219Z,3.80
2023-05-06T02:51:14.958Z,3.90
2023-05-06T02:53:42.817Z,3.70
2023-05-06T02:56:10.622Z,3.60
2023-05-06T02:58:38.355Z,3.40
2023-05-06T03:01:06.357Z,3.00
2023-05-06T03:03:34.296Z,3.70
2023-05-06T03:06:02.049Z,3.40
2023-05-06T03:08:29.785Z,3.60
2023-05-06T03:10:57.820Z,3.80
2023-05-06T03:13:25.863Z,3.40
2023-05-06T03:15:54.210Z,3.50
2023-05-06T03:18:22.036Z,3.80
2023-05-06T03:20:49.717Z,3.50
2023-05-06T03:23:17.502Z,3.60
2023-05-06T03:25:45.350Z,4.20
2023-05-06T03:28:13.269Z,3.20
2023-05-06T03:30:41.236Z,3.30
2023-05-06T03:33:09.029Z,3.80
2023-05-06T03:35:36.815Z,3.70
2023-05-06T03:38:04.562Z,3.70
2023-05-06T03:40:32.776Z,3.90
2023-05-06T03:43:00.541Z,3.80
2023-05-06T03:45:28.300Z,3.70
2023-05-06T03:47:58.476Z,3.50
2023-05-06T03:50:26.358Z,3.60
2023-05-06T03:52:54.296Z,4.00
2023-05-06T03:55:22.177Z,3.80
2023-05-06T03:57:49.848Z,4.80
2023-05-06T04:00:17.635Z,3.40
2023-05-06T04:02:45.686Z,3.60
2023-05-06T04:05:13.593Z,3.80
2023-05-06T04:07:41.393Z,3.50
2023-05-06T04:10:09.739Z,4.20
2023-05-06T04:12:37.883Z,3.60
2023-05-06T04:15:07.565Z,3.10
2023-05-06T04:17:35.472Z,4.00
2023-05-06T04:20:11.622Z,3.40
2023-05-06T04:22:39.745Z,3.40
2023-05-06T04:25:08.468Z,4.00
2023-05-06T04:27:36.513Z,3.10
2023-05-06T04:30:04.571Z,4.60
2023-05-06T04:32:34.148Z,3.70
2023-05-06T04:35:02.531Z,3.90
2023-05-06T04:37:30.934Z,4.30
2023-05-06T04:39:58.910Z,3.70
2023-05-06T04:42:26.783Z,3.20
2023-05-06T04:44:54.732Z,3.30
2023-05-06T04:47:22.791Z,3.20
2023-05-06T04:49:50.648Z,3.60
2023-05-06T04:52:18.627Z,3.30
2023-05-06T04:54:46.416Z,4.40
2023-05-06T04:57:14.224Z,3.40
2023-05-06T04:59:42.699Z,4.00
2023-05-06T05:02:10.633Z,5.00
2023-05-06T05:04:38.668Z,4.40
2023-05-06T05:07:07.520Z,4.50
2023-05-06T05:09:35.871Z,5.50
2023-05-06T05:12:03.725Z,5.20
2023-05-06T05:14:31.889Z,4.10
2023-05-06T05:16:59.877Z,4.20
2023-05-06T05:19:27.675Z,4.30
2023-05-06T05:21:55.489Z,4.90
2023-05-06T05:24:23.232Z,4.10
2023-05-06T05:26:51.048Z,4.40
2023-05-06T05:29:19.131Z,4.70
2023-05-06T05:31:46.925Z,4.00
2023-05-06T05:34:14.863Z,4.80
2023-05-06T05:36:42.693Z,4.40
2023-05-06T05:39:10.466Z,4.40
2023-05-06T05:41:38.384Z,4.50
2023-05-06T05:44:06.744Z,4.60
2023-05-06T05:46:34.713Z,4.60
2023-05-06T05:49:02.579Z,4.10
2023-05-06T05:51:31.029Z,4.60
2023-05-06T05:53:58.794Z,4.20
2023-05-06T05:56:26.793Z,4.90
2023-05-06T05:58:54.806Z,4.40
2023-05-06T06:01:22.537Z,4.30
2023-05-06T06:03:50.546Z,3.80
2023-05-06T06:06:18.446Z,3.60
2023-05-06T06:08:46.454Z,4.20
2023-05-06T06:11:14.296Z,5.20
2023-05-06T06:13:42.167Z,5.20
2023-05-06T06:16:10.886Z,4.90
2023-05-06T06:18:38.884Z,4.80
2023-05-06T06:21:06.916Z,6.20
2023-05-06T06:23:34.917Z,5.10
2023-05-06T06:26:03.553Z,5.00
2023-05-06T06:28:31.643Z,4.90
2023-05-06T06:30:59.700Z,4.60
2023-05-06T06:33:27.916Z,4.50
2023-05-06T06:35:55.834Z,4.40
2023-05-06T06:38:23.529Z,4.70
2023-05-06T06:40:51.373Z,5.10
2023-05-06T06:43:20.015Z,4.70
2023-05-06T06:45:48.187Z,4.90
2023-05-06T06:48:16.837Z,4.70
2023-05-06T06:50:44.775Z,4.60
2023-05-06T06:53:12.533Z,4.60
2023-05-06T06:55:45.460Z,5.70
2023-05-06T06:58:13.476Z,5.60
2023-05-06T07:00:43.377Z,5.70
2023-05-06T07:03:11.649Z,5.20
2023-05-06T07:05:39.417Z,5.80
2023-05-06T07:08:07.237Z,7.60
2023-05-06T07:10:35.947Z,7.60
2023-05-06T07:13:03.983Z,6.50
2023-05-06T07:15:31.792Z,5.50
2023-05-06T07:17:59.512Z,5.80
2023-05-06T07:20:27.539Z,6.00
2023-05-06T07:22:55.497Z,5.40
2023-05-06T07:25:23.381Z,6.00
2023-05-06T07:27:51.325Z,7.80
2023-05-06T07:30:22.421Z,7.60
2023-05-06T07:32:51.454Z,6.20
2023-05-06T07:35:19.371Z,5.30
2023-05-06T07:37:47.585Z,6.10
2023-05-06T07:40:15.377Z,8.80
2023-05-06T07:42:43.410Z,7.50
2023-05-06T07:45:11.808Z,7.20
2023-05-06T07:47:39.918Z,5.40
2023-05-06T07:50:08.397Z,5.20
2023-05-06T07:52:36.185Z,6.40
2023-05-06T07:55:05.085Z,5.50
2023-05-06T07:57:32.818Z,5.00
2023-05-06T08:00:00.681Z,5.60
2023-05-06T08:02:32.211Z,5.60
2023-05-06T08:05:00.388Z,6.00
2023-05-06T08:07:29.716Z,5.30
2023-05-06T08:09:57.777Z,5.30
2023-05-06T08:12:25.688Z,5.60
2023-05-06T08:14:54.942Z,4.80
2023-05-06T08:17:22.805Z,4.90
2023-05-06T08:19:51.101Z,5.00
2023-05-06T08:22:19.049Z,5.10
2023-05-06T08:24:47.045Z,7.10
2023-05-06T08:27:17.917Z,5.60
2023-05-06T08:29:48.205Z,5.50
2023-05-06T08:32:16.158Z,5.20
2023-05-06T08:34:44.011Z,5.70
2023-05-06T08:37:12.188Z,4.80
2023-05-06T08:39:46.273Z,6.10
2023-05-06T08:42:14.302Z,5.60
2023-05-06T08:44:56.713Z,6.70
2023-05-06T08:47:27.105Z,7.10
2023-05-06T08:49:55.163Z,8.00
2023-05-06T08:52:24.032Z,5.90
2023-05-06T08:55:01.370Z,6.00
2023-05-06T08:57:30.585Z,5.20
2023-05-06T08:59:58.987Z,5.30
2023-05-06T09:02:27.638Z,5.30
2023-05-06T09:04:57.035Z,5.80
2023-05-06T09:07:26.044Z,5.10
2023-05-06T09:09:54.084Z,4.80
2023-05-06T09:12:23.579Z,5.70
2023-05-06T09:14:51.716Z,5.60
2023-05-06T09:17:26.956Z,6.30
2023-05-06T09:19:59.528Z,6.80
2023-05-06T09:22:28.301Z,5.20
2023-05-06T09:24:59.302Z,5.00
2023-05-06T09:27:28.236Z,6.50
2023-05-06T09:30:02.095Z,5.40
2023-05-06T09:32:29.966Z,6.70
2023-05-06T09:34:57.899Z,7.30
2023-05-06T09:37:28.733Z,6.70
2023-05-06T09:39:57.760Z,6.00
2023-05-06T09:42:26.444Z,6.70
2023-05-06T09:44:54.814Z,6.60
2023-05-06T09:47:24.008Z,5.60
2023-05-06T09:49:51.857Z,5.70
2023-05-06T09:52:20.886Z,5.60
2023-05-06T09:54:51.764Z,5.30
2023-05-06T09:57:19.822Z,5.70
2023-05-06T09:59:52.117Z,6.30
2023-05-06T10:02:20.105Z,6.50
2023-05-06T10:04:49.065Z,6.00
2023-05-06T10:07:22.878Z,5.40
2023-05-06T10:09:51.541Z,6.10
2023-05-06T10:12:20.315Z,5.70
2023-05-06T10:14:48.233Z,5.70
2023-05-06T10:17:18.200Z,5.30
2023-05-06T10:19:46.801Z,6.50
2023-05-06T10:22:27.148Z,5.40
2023-05-06T10:25:17.129Z,6.30
2023-05-06T10:27:46.080Z,6.80
2023-05-06T10:30:15.059Z,7.00
2023-05-06T10:32:43.477Z,6.80
2023-05-06T10:35:32.146Z,8.40
2023-05-06T10:38:01.173Z,7.80
2023-05-06T10:40:29.004Z,7.10
2023-05-06T10:43:15.351Z,6.30
2023-05-06T10:46:01.980Z,7.50
2023-05-06T10:48:30.905Z,7.10
2023-05-06T10:51:16.845Z,7.00
2023-05-06T10:54:04.593Z,5.80
2023-05-06T10:56:39.331Z,6.50
2023-05-06T10:59:08.341Z,7.00
2023-05-06T11:01:36.826Z,6.60
2023-05-06T11:04:09.595Z,6.10
2023-05-06T11:06:47.851Z,6.50
2023-05-06T11:09:22.740Z,5.90
2023-05-06T11:12:03.856Z,6.50
2023-05-06T11:14:34.414Z,5.90
2023-05-06T11:17:06.234Z,6.80
2023-05-06T11:19:35.306Z,5.40
2023-05-06T11:22:04.212Z,6.10
2023-05-06T11:24:42.525Z,5.90
2023-05-06T11:27:11.284Z,6.20
2023-05-06T11:29:39.168Z,6.40
2023-05-06T11:32:17.762Z,6.20
2023-05-06T11:34:49.064Z,8.40
2023-05-06T11:37:24.983Z,8.90
2023-05-06T11:39:53.614Z,8.30
2023-05-06T11:42:31.712Z,7.40
2023-05-06T11:45:03.405Z,7.60
2023-05-06T11:47:33.896Z,7.70
2023-05-06T11:50:07.580Z,9.70
2023-05-06T11:52:36.059Z,8.80
2023-05-06T11:55:07.538Z,9.80
2023-05-06T11:57:35.605Z,8.30
2023-05-06T12:00:05.196Z,8.00
2023-05-06T12:02:35.076Z,7.80
2023-05-06T12:05:03.431Z,10.50
2023-05-06T12:07:34.447Z,12.20
2023-05-06T12:10:04.368Z,12.70
2023-05-06T12:12:33.717Z,10.60
2023-05-06T12:15:01.819Z,9.60
2023-05-06T12:17:29.667Z,8.50
2023-05-06T12:19:58.962Z,8.70
2023-05-06T12:22:26.822Z,8.00
2023-05-06T12:24:54.627Z,9.40
2023-05-06T12:27:32.578Z,9.20
2023-05-06T12:30:00.895Z,8.70
2023-05-06T12:32:28.804Z,9.50
2023-05-06T12:34:56.678Z,10.40
2023-05-06T12:37:26.285Z,9.50
2023-05-06T12:39:56.293Z,7.70
2023-05-06T12:42:26.601Z,10.00
2023-05-06T12:44:54.594Z,8.80
2023-05-06T12:47:23.925Z,9.40
2023-05-06T12:49:52.911Z,7.50
2023-05-06T12:52:22.182Z,8.60
2023-05-06T12:54:53.357Z,8.00
2023-05-06T12:57:21.733Z,8.50
2023-05-06T12:59:49.737Z,9.50
2023-05-06T13:02:17.685Z,9.60
2023-05-06T13:04:46.939Z,10.40
2023-05-06T13:07:14.987Z,10.60
2023-05-06T13:09:44.708Z,10.50
2023-05-06T13:12:13.408Z,11.20
2023-05-06T13:14:41.230Z,9.60
2023-05-06T13:17:11.436Z,10.30
2023-05-06T13:19:39.478Z,10.40
2023-05-06T13:22:07.646Z,12.40
2023-05-06T13:24:35.412Z,11.30
2023-05-06T13:27:03.325Z,10.00
2023-05-06T13:29:31.923Z,11.10
2023-05-06T13:32:00.820Z,10.70
2023-05-06T13:34:29.329Z,12.00
2023-05-06T13:36:58.036Z,8.10
2023-05-06T13:39:26.091Z,9.90
2023-05-06T13:41:54.347Z,11.70
2023-05-06T13:44:22.363Z,11.00
2023-05-06T13:46:50.231Z,10.40
2023-05-06T13:49:18.598Z,9.40
2023-05-06T13:51:46.478Z,10.40
2023-05-06T13:54:14.292Z,10.70
2023-05-06T13:56:42.340Z,10.40
2023-05-06T13:59:11.836Z,10.40
2023-05-06T14:01:40.423Z,11.30
2023-05-06T14:04:08.547Z,10.10
2023-05-06T14:06:38.825Z,7.70
2023-05-06T14:09:07.233Z,10.40
2023-05-06T14:11:35.020Z,8.30
2023-05-06T14:14:02.987Z,7.60
2023-05-06T14:16:30.822Z,7.60
2023-05-06T14:18:59.326Z,7.30
2023-05-06T14:21:38.827Z,8.30
2023-05-06T14:24:10.402Z,8.90
2023-05-06T14:26:41.705Z,8.90
2023-05-06T14:29:09.997Z,8.70
2023-05-06T14:31:38.104Z,7.70
2023-05-06T14:34:06.207Z,6.50
2023-05-06T14:36:34.238Z,8.20
2023-05-06T14:39:05.332Z,6.90
2023-05-06T14:41:36.729Z,7.70
2023-05-06T14:44:05.751Z,9.20
2023-05-06T14:46:34.157Z,7.90
2023-05-06T14:49:02.201Z,6.90
2023-05-06T14:51:29.999Z,7.30
2023-05-06T14:53:57.954Z,11.00
2023-05-06T14:56:26.394Z,8.10
2023-05-06T14:58:54.554Z,10.20
2023-05-06T15:01:22.596Z,8.60
2023-05-06T15:03:51.503Z,10.00
2023-05-06T15:06:19.724Z,8.80
2023-05-06T15:08:47.733Z,8.10
2023-05-06T15:11:15.606Z,7.60
2023-05-06T15:13:43.521Z,7.80
2023-05-06T15:16:11.709Z,8.00
2023-05-06T15:18:41.856Z,6.40
2023-05-06T15:21:09.687Z,8.30
2023-05-06T15:23:37.695Z,7.60
2023-05-06T15:26:05.874Z,6.70
2023-05-06T15:28:33.907Z,7.10
2023-05-06T15:31:01.666Z,8.40
2023-05-06T15:33:29.538Z,7.80
2023-05-06T15:35:57.242Z,8.30
2023-05-06T15:38:25.013Z,6.70
2023-05-06T15:40:52.892Z,8.20
2023-05-06T15:43:24.307Z,8.30
2023-05-06T15:45:52.636Z,6.60
2023-05-06T15:48:24.397Z,7.90
2023-05-06T15:50:52.427Z,8.10
2023-05-06T15:53:20.228Z,7.10
2023-05-06T15:55:56.805Z,7.50
2023-05-06T15:58:29.859Z,7.10
2023-05-06T16:00:57.863Z,7.70
2023-05-06T16:03:25.688Z,7.80
2023-05-06T16:05:54.317Z,6.90
2023-05-06T16:08:22.052Z,7.00
2023-05-06T16:10:50.915Z,6.90
2023-05-06T16:13:20.515Z,7.00
2023-05-06T16:15:48.881Z,5.80
2023-05-06T16:18:16.821Z,7.60
2023-05-06T16:20:44.814Z,7.10
2023-05-06T16:23:14.241Z,7.00
2023-05-06T16:25:42.490Z,6.80
2023-05-06T16:28:10.399Z,5.80
2023-05-06T16:30:38.215Z,6.70
2023-05-06T16:33:06.184Z,6.90
2023-05-06T16:35:36.473Z,7.50
2023-05-06T16:38:04.283Z,6.70
2023-05-06T16:40:32.127Z,6.10
2023-05-06T16:42:59.923Z,6.30
2023-05-06T16:45:27.776Z,8.20
2023-05-06T16:47:55.768Z,8.40
2023-05-06T16:50:23.666Z,8.40
2023-05-06T16:52:52.517Z,7.60
2023-05-06T16:55:21.975Z,7.10
2023-05-06T16:57:49.965Z,7.90
2023-05-06T17:00:18.140Z,7.20
2023-05-06T17:02:46.332Z,7.30
2023-05-06T17:05:14.142Z,10.00
2023-05-06T17:07:41.997Z,9.90
2023-05-06T17:10:10.097Z,9.00
2023-05-06T17:12:38.546Z,8.80
2023-05-06T17:15:06.654Z,7.60
2023-05-06T17:17:34.839Z,10.30
2023-05-06T17:20:02.736Z,8.90
2023-05-06T17:22:30.745Z,8.50
2023-05-06T17:24:58.562Z,7.50
2023-05-06T17:27:26.334Z,8.30
2023-05-06T17:29:54.121Z,6.60
2023-05-06T17:32:22.910Z,8.30
2023-05-06T17:34:50.789Z,8.90
2023-05-06T17:37:18.648Z,7.50
2023-05-06T17:39:47.297Z,7.40
2023-05-06T17:42:17.931Z,7.10
2023-05-06T17:44:46.008Z,8.60
2023-05-06T17:47:13.854Z,6.90
2023-05-06T17:49:41.708Z,8.50
2023-05-06T17:52:09.409Z,8.70
2023-05-06T17:54:38.166Z,9.80
2023-05-06T17:57:06.038Z,10.70
2023-05-06T17:59:33.893Z,10.10
2023-05-06T18:02:01.977Z,8.80
2023-05-06T18:04:29.878Z,9.50
2023-05-06T18:06:57.722Z,10.90
2023-05-06T18:09:25.645Z,9.80
2023-05-06T18:11:53.447Z,9.40
2023-05-06T18:14:21.432Z,7.50
2023-05-06T18:16:49.207Z,7.70
2023-05-06T18:19:17.157Z,8.90
2023-05-06T18:21:45.949Z,11.20
2023-05-06T18:24:16.460Z,9.40
2023-05-06T18:26:46.026Z,9.80
2023-05-06T18:29:14.271Z,9.20
2023-05-06T18:31:42.712Z,10.90
2023-05-06T18:34:10.717Z,9.90
2023-05-06T18:36:38.908Z,8.30
2023-05-06T18:39:07.147Z,9.30
2023-05-06T18:41:35.012Z,8.80
2023-05-06T18:44:04.434Z,7.20
2023-05-06T18:46:32.626Z,9.70
2023-05-06T18:49:01.063Z,9.90
2023-05-06T18:51:29.232Z,10.80
2023-05-06T18:53:57.113Z,10.00
2023-05-06T18:56:25.389Z,10.50
2023-05-06T18:58:53.266Z,9.80
2023-05-06T19:01:21.504Z,11.40
2023-05-06T19:03:49.328Z,10.70
2023-05-06T19:06:17.318Z,10.60
2023-05-06T19:08:45.427Z,9.00
2023-05-06T19:11:18.262Z,9.30
2023-05-06T19:13:46.658Z,9.20
2023-05-06T19:16:14.607Z,9.90
2023-05-06T19:18:42.542Z,9.70
2023-05-06T19:21:11.042Z,9.60
2023-05-06T19:23:38.913Z,9.60
2023-05-06T19:26:07.213Z,9.80
2023-05-06T19:28:35.104Z,10.20
2023-05-06T19:31:06.967Z,9.50
2023-05-06T19:33:35.499Z,10.20
2023-05-06T19:36:04.016Z,10.30
2023-05-06T19:38:32.257Z,11.40
2023-05-06T19:41:00.170Z,12.50
2023-05-06T19:43:27.994Z,11.20
2023-05-06T19:45:56.343Z,11.40
2023-05-06T19:48:24.222Z,8.80
2023-05-06T19:50:53.977Z,9.30
2023-05-06T19:53:24.109Z,8.50
2023-05-06T19:55:53.759Z,10.50
2023-05-06T19:58:21.757Z,8.50
2023-05-06T20:00:49.712Z,9.30
2023-05-06T20:03:17.572Z,7.80
2023-05-06T20:05:45.484Z,8.20
2023-05-06T20:08:13.475Z,8.30
2023-05-06T20:10:41.479Z,8.50
2023-05-06T20:13:11.982Z,9.20
2023-05-06T20:15:40.065Z,9.10
2023-05-06T20:20:36.132Z,10.40
2023-05-06T20:23:04.093Z,9.30
2023-05-06T20:25:32.282Z,7.80
2023-05-06T20:28:00.313Z,8.20
2023-05-06T20:30:31.246Z,7.60
2023-05-06T20:32:59.531Z,9.20
2023-05-06T20:35:27.432Z,8.70
2023-05-06T20:37:55.896Z,8.80
2023-05-06T20:40:23.910Z,10.50
2023-05-06T20:42:51.770Z,10.90
2023-05-06T20:45:19.720Z,9.00
2023-05-06T20:47:47.628Z,9.10
2023-05-06T20:50:17.975Z,8.20
2023-05-06T20:52:47.388Z,8.50
2023-05-06T20:55:16.074Z,9.10
2023-05-06T20:57:44.617Z,7.60
2023-05-06T21:00:12.848Z,7.70
2023-05-06T21:02:42.286Z,8.10
2023-05-06T21:05:11.735Z,8.90
2023-05-06T21:07:42.715Z,8.40
2023-05-06T21:10:11.216Z,8.80
2023-05-06T21:12:39.388Z,8.00
2023-05-06T21:15:07.556Z,9.00
2023-05-06T21:17:35.532Z,8.60
2023-05-06T21:20:04.928Z,8.70
2023-05-06T21:22:34.225Z,7.50
2023-05-06T21:25:01.984Z,8.50
2023-05-06T21:27:29.956Z,8.30
2023-05-06T21:29:57.725Z,8.60
2023-05-06T21:32:25.804Z,8.60
2023-05-06T21:34:53.765Z,8.80
2023-05-06T21:37:21.609Z,8.40
2023-05-06T21:39:49.444Z,8.60
2023-05-06T21:42:17.375Z,8.90
2023-05-06T21:44:45.129Z,8.20
2023-05-06T21:47:12.851Z,7.80
2023-05-06T21:49:40.736Z,8.50
2023-05-06T21:52:08.497Z,8.40
2023-05-06T21:54:36.272Z,7.20
2023-05-06T21:57:07.956Z,8.00
2023-05-06T21:59:36.257Z,7.70
2023-05-06T22:02:04.377Z,7.30
2023-05-06T22:04:32.441Z,7.90
2023-05-06T22:07:00.158Z,7.90
2023-05-06T22:09:28.329Z,7.70
2023-05-06T22:11:56.079Z,8.00
2023-05-06T22:14:27.005Z,7.90
2023-05-06T22:16:58.394Z,7.90
2023-05-06T22:19:27.027Z,6.40
2023-05-06T22:21:54.794Z,8.00
2023-05-06T22:24:22.577Z,7.50
2023-05-06T22:26:50.325Z,8.10
2023-05-06T22:29:18.977Z,8.60
2023-05-06T22:31:46.801Z,8.40
2023-05-06T22:34:14.629Z,8.40
2023-05-06T22:36:42.490Z,8.30
2023-05-06T22:39:10.393Z,7.40
2023-05-06T22:41:38.284Z,7.20
2023-05-06T22:44:06.413Z,7.10
2023-05-06T22:46:34.217Z,6.60
2023-05-06T22:49:01.981Z,7.30
2023-05-06T22:51:29.781Z,7.10
2023-05-06T22:53:57.525Z,7.20
2023-05-06T22:56:25.478Z,7.20
2023-05-06T22:58:53.233Z,6.80
2023-05-06T23:01:21.253Z,6.30
2023-05-06T23:03:52.170Z,6.80
2023-05-06T23:06:20.056Z,6.00
2023-05-06T23:08:47.817Z,6.20
2023-05-06T23:11:15.622Z,6.80
2023-05-06T23:13:43.512Z,6.20
2023-05-06T23:16:11.347Z,5.90
2023-05-06T23:18:39.056Z,5.90
2023-05-06T23:21:06.986Z,6.10
2023-05-06T23:23:34.997Z,6.20
2023-05-06T23:26:03.006Z,5.90
2023-05-06T23:28:30.909Z,6.80
2023-05-06T23:30:58.975Z,5.80
2023-05-06T23:33:26.919Z,5.80
2023-05-06T23:35:54.903Z,6.10
2023-05-06T23:38:22.676Z,6.10
2023-05-06T23:40:50.930Z,6.20
2023-05-06T23:43:18.816Z,6.10
2023-05-06T23:45:46.713Z,5.80
2023-05-06T23:48:14.415Z,5.40
2023-05-06T23:50:42.267Z,6.00
2023-05-06T23:53:09.973Z,5.60
2023-05-06T23:55:38.265Z,6.30
2023-05-06T23:58:06.562Z,6.10
